createdAt,value
2023-04-02T00:00:12.156Z,85.06
2023-04-02T00:03:10.282Z,85.36
2023-04-02T00:05:54.418Z,85.32
2023-04-02T00:08:38.910Z,85.42
2023-04-02T00:11:09.152Z,85.42
2023-04-02T00:13:45.517Z,85.44
2023-04-02T00:16:19.954Z,85.34
2023-04-02T00:18:54.183Z,85.12
2023-04-02T00:21:31.166Z,84.80
2023-04-02T00:24:10.974Z,84.65
2023-04-02T00:26:45.050Z,84.64
2023-04-02T00:29:16.244Z,84.97
2023-04-02T00:31:49.243Z,85.47
2023-04-02T00:34:26.469Z,85.64
2023-04-02T00:36:54.970Z,85.59
2023-04-02T00:39:27.402Z,85.35
2023-04-02T00:42:05.706Z,85.13
2023-04-02T00:44:44.794Z,85.30
2023-04-02T00:47:19.027Z,85.62
2023-04-02T00:49:54.680Z,85.74
2023-04-02T00:52:29.269Z,86.02
2023-04-02T00:55:07.899Z,86.17
2023-04-02T00:57:36.516Z,86.43
2023-04-02T01:00:34.125Z,86.69
2023-04-02T01:03:17.099Z,86.77
2023-04-02T01:05:55.840Z,86.82
2023-04-02T01:09:03.996Z,86.96
2023-04-02T01:11:56.093Z,87.49
2023-04-02T01:14:49.175Z,87.33
2023-04-02T01:18:09.730Z,87.67
2023-04-02T01:21:25.561Z,87.72
2023-04-02T01:24:02.245Z,87.73
2023-04-02T01:26:57.703Z,87.86
2023-04-02T01:29:32.569Z,87.89
2023-04-02T01:32:22.576Z,87.88
2023-04-02T01:34:52.429Z,88.17
2023-04-02T01:37:44.962Z,88.16
2023-04-02T01:40:28.230Z,88.14
2023-04-02T01:43:23.069Z,88.12
2023-04-02T01:45:51.032Z,88.41
2023-04-02T01:48:27.311Z,88.45
2023-04-02T01:50:59.393Z,88.56
2023-04-02T01:53:31.212Z,88.65
2023-04-02T01:56:02.741Z,88.68
2023-04-02T01:58:33.569Z,88.74
2023-04-02T02:01:09.437Z,88.77
2023-04-02T02:03:42.494Z,88.56
2023-04-02T02:06:18.150Z,88.74
2023-04-02T02:08:54.689Z,88.95
2023-04-02T02:11:27.592Z,88.93
2023-04-02T02:14:12.584Z,88.69
2023-04-02T02:16:44.282Z,88.95
2023-04-02T02:19:36.934Z,88.87
2023-04-02T02:22:29.186Z,88.87
2023-04-02T02:25:01.016Z,88.79
2023-04-02T02:28:18.335Z,88.60
2023-04-02T02:30:51.752Z,88.33
2023-04-02T02:33:46.326Z,88.17
2023-04-02T02:36:24.701Z,88.21
2023-04-02T02:39:05.824Z,88.12
2023-04-02T02:42:02.459Z,88.14
2023-04-02T02:44:37.368Z,87.74
2023-04-02T02:47:18.462Z,87.77
2023-04-02T02:49:53.193Z,87.57
2023-04-02T02:52:35.078Z,87.61
2023-04-02T02:55:15.883Z,87.36
2023-04-02T02:58:04.560Z,87.01
2023-04-02T03:00:38.378Z,87.15
2023-04-02T03:03:30.223Z,87.04
2023-04-02T03:06:09.144Z,86.81
2023-04-02T03:08:51.777Z,86.77
2023-04-02T03:11:33.814Z,86.66
2023-04-02T03:14:22.939Z,86.41
2023-04-02T03:17:19.558Z,86.55
2023-04-02T03:20:06.515Z,86.57
2023-04-02T03:23:04.970Z,86.56
2023-04-02T03:25:46.365Z,86.47
2023-04-02T03:28:24.749Z,86.28
2023-04-02T03:31:04.950Z,86.25
2023-04-02T03:33:47.808Z,86.34
2023-04-02T03:36:33.747Z,86.48
2023-04-02T03:39:24.118Z,86.34
2023-04-02T03:42:00.374Z,85.96
2023-04-02T03:44:37.304Z,85.53
2023-04-02T03:47:17.514Z,85.33
2023-04-02T03:49:57.240Z,85.12
2023-04-02T03:52:28.531Z,84.92
2023-04-02T03:55:01.256Z,84.82
2023-04-02T03:58:02.079Z,84.62
2023-04-02T04:01:28.439Z,84.68
2023-04-02T04:04:07.799Z,84.66
2023-04-02T04:06:41.423Z,84.55
2023-04-02T04:09:24.295Z,84.52
2023-04-02T04:12:02.061Z,84.54
2023-04-02T04:14:42.329Z,84.55
2023-04-02T04:17:17.921Z,84.58
2023-04-02T04:19:55.463Z,84.72
2023-04-02T04:22:31.770Z,84.32
2023-04-02T04:25:19.350Z,83.70
2023-04-02T04:28:10.587Z,83.45
2023-04-02T04:31:18.020Z,83.56
2023-04-02T04:33:54.921Z,83.59
2023-04-02T04:36:32.144Z,83.58
2023-04-02T04:39:21.694Z,83.55
2023-04-02T04:41:54.293Z,83.67
2023-04-02T04:44:29.136Z,83.33
2023-04-02T04:47:09.262Z,83.19
2023-04-02T04:49:54.120Z,83.28
2023-04-02T04:52:35.484Z,83.32
2023-04-02T04:55:20.368Z,83.38
2023-04-02T04:57:50.803Z,83.49
2023-04-02T05:01:16.604Z,83.64
2023-04-02T05:03:58.445Z,83.86
2023-04-02T05:06:45.596Z,83.90
2023-04-02T05:09:51.988Z,84.11
2023-04-02T05:12:44.535Z,83.89
2023-04-02T05:15:42.263Z,83.90
2023-04-02T05:18:36.452Z,84.02
2023-04-02T05:21:14.544Z,84.26
2023-04-02T05:23:56.023Z,84.51
2023-04-02T05:26:41.835Z,84.42
2023-04-02T05:29:18.228Z,84.47
2023-04-02T05:32:03.535Z,84.46
2023-04-02T05:34:41.817Z,84.23
2023-04-02T05:37:21.108Z,83.93
2023-04-02T05:40:00.928Z,83.96
2023-04-02T05:42:35.395Z,83.54
2023-04-02T05:45:14.593Z,83.34
2023-04-02T05:47:46.780Z,83.21
2023-04-02T05:50:26.061Z,82.75
2023-04-02T05:53:08.754Z,82.39
2023-04-02T05:55:51.909Z,82.01
2023-04-02T05:58:43.929Z,81.31
2023-04-02T06:01:37.652Z,81.56
2023-04-02T06:04:34.810Z,81.60
2023-04-02T06:07:23.778Z,81.69
2023-04-02T06:10:00.769Z,81.85
2023-04-02T06:12:42.048Z,81.96
2023-04-02T06:15:16.966Z,82.00
2023-04-02T06:18:26.053Z,81.47
2023-04-02T06:20:55.837Z,81.12
2023-04-02T06:23:40.887Z,81.29
2023-04-02T06:26:33.240Z,81.42
2023-04-02T06:29:05.058Z,81.62
2023-04-02T06:31:38.878Z,81.53
2023-04-02T06:34:21.030Z,81.65
2023-04-02T06:37:18.240Z,81.63
2023-04-02T06:39:46.470Z,81.01
2023-04-02T06:42:26.546Z,79.90
2023-04-02T06:45:25.615Z,79.76
2023-04-02T06:48:19.823Z,79.60
2023-04-02T06:51:12.992Z,79.61
2023-04-02T06:53:46.758Z,79.84
2023-04-02T06:56:22.237Z,79.33
2023-04-02T06:58:50.659Z,78.86
2023-04-02T07:01:27.055Z,78.56
2023-04-02T07:03:57.066Z,78.26
2023-04-02T07:06:29.989Z,78.24
2023-04-02T07:09:00.761Z,78.45
2023-04-02T07:11:28.655Z,78.50
2023-04-02T07:13:59.537Z,78.86
2023-04-02T07:16:30.634Z,78.60
2023-04-02T07:18:59.421Z,78.46
2023-04-02T07:21:29.006Z,78.56
2023-04-02T07:23:57.803Z,78.28
2023-04-02T07:26:28.017Z,77.90
2023-04-02T07:28:56.166Z,77.57
2023-04-02T07:31:27.713Z,77.25
2023-04-02T07:33:59.765Z,77.11
2023-04-02T07:36:29.667Z,76.95
2023-04-02T07:38:58.093Z,76.77
2023-04-02T07:41:26.374Z,76.65
2023-04-02T07:43:54.290Z,76.29
2023-04-02T07:46:22.202Z,76.43
2023-04-02T07:48:50.303Z,76.53
2023-04-02T07:51:26.612Z,76.19
2023-04-02T07:53:57.482Z,75.91
2023-04-02T07:56:26.113Z,75.63
2023-04-02T07:58:54.031Z,75.69
2023-04-02T08:01:27.587Z,75.47
2023-04-02T08:03:58.189Z,75.79
2023-04-02T08:06:26.266Z,75.46
2023-04-02T08:08:54.792Z,75.71
2023-04-02T08:11:23.015Z,75.84
2023-04-02T08:13:51.989Z,75.83
2023-04-02T08:16:19.979Z,75.79
2023-04-02T08:18:47.853Z,75.95
2023-04-02T08:21:16.627Z,76.02
2023-04-02T08:23:45.240Z,75.95
2023-04-02T08:26:18.913Z,75.04
2023-04-02T08:28:46.867Z,74.52
2023-04-02T08:31:14.678Z,75.40
2023-04-02T08:33:42.495Z,74.99
2023-04-02T08:36:17.724Z,74.95
2023-04-02T08:38:46.711Z,73.89
2023-04-02T08:41:27.614Z,73.71
2023-04-02T08:44:57.209Z,73.62
2023-04-02T08:47:27.263Z,73.90
2023-04-02T08:50:02.481Z,73.90
2023-04-02T08:52:38.207Z,74.06
2023-04-02T08:55:23.789Z,74.58
2023-04-02T08:58:06.497Z,73.64
2023-04-02T09:00:43.878Z,73.99
2023-04-02T09:03:30.486Z,73.61
2023-04-02T09:06:04.606Z,73.16
2023-04-02T09:08:35.488Z,73.68
2023-04-02T09:11:22.568Z,73.58
2023-04-02T09:14:01.808Z,73.20
2023-04-02T09:16:58.685Z,73.41
2023-04-02T09:19:55.460Z,72.99
2023-04-02T09:22:32.933Z,73.17
2023-04-02T09:25:12.293Z,73.30
2023-04-02T09:27:40.089Z,72.59
2023-04-02T09:30:32.392Z,72.60
2023-04-02T09:33:09.953Z,71.92
2023-04-02T09:35:50.508Z,71.49
2023-04-02T09:38:22.894Z,71.68
2023-04-02T09:41:00.769Z,70.68
2023-04-02T09:43:39.395Z,71.01
2023-04-02T09:46:13.184Z,70.92
2023-04-02T09:48:49.696Z,70.90
2023-04-02T09:51:21.497Z,70.88
2023-04-02T09:54:07.629Z,70.56
2023-04-02T09:56:38.423Z,70.26
2023-04-02T09:59:17.175Z,70.10
2023-04-02T10:01:55.688Z,70.43
2023-04-02T10:04:45.140Z,70.56
2023-04-02T10:07:32.588Z,70.14
2023-04-02T10:10:39.064Z,70.21
2023-04-02T10:13:18.827Z,70.24
2023-04-02T10:16:07.317Z,69.31
2023-04-02T10:18:58.354Z,69.13
2023-04-02T10:21:32.371Z,69.15
2023-04-02T10:24:00.375Z,69.53
2023-04-02T10:26:45.216Z,68.27
2023-04-02T10:29:21.553Z,66.29
2023-04-02T10:32:14.910Z,66.84
2023-04-02T10:35:08.878Z,66.55
2023-04-02T10:37:45.962Z,66.79
2023-04-02T10:40:49.568Z,66.36
2023-04-02T10:43:41.596Z,65.32
2023-04-02T10:46:37.855Z,65.64
2023-04-02T10:49:41.032Z,65.76
2023-04-02T10:52:36.218Z,66.25
2023-04-02T10:55:18.113Z,66.40
2023-04-02T10:57:47.140Z,65.79
2023-04-02T11:00:41.643Z,65.42
2023-04-02T11:03:43.439Z,65.30
2023-04-02T11:06:22.458Z,64.91
2023-04-02T11:08:57.621Z,65.11
2023-04-02T11:11:47.635Z,65.25
2023-04-02T11:14:31.469Z,66.06
2023-04-02T11:17:02.998Z,66.52
2023-04-02T11:19:33.201Z,65.76
2023-04-02T11:22:24.497Z,64.61
2023-04-02T11:24:56.025Z,64.51
2023-04-02T11:27:28.107Z,64.82
2023-04-02T11:30:06.401Z,65.09
2023-04-02T11:32:43.090Z,65.23
2023-04-02T11:35:39.199Z,64.72
2023-04-02T11:38:11.958Z,64.70
2023-04-02T11:41:06.086Z,64.68
2023-04-02T11:43:34.118Z,64.15
2023-04-02T11:46:34.849Z,63.70
2023-04-02T11:49:37.954Z,63.56
2023-04-02T11:52:22.137Z,63.63
2023-04-02T11:55:34.406Z,63.34
2023-04-02T11:58:35.998Z,64.05
2023-04-02T12:01:14.863Z,62.54
2023-04-02T12:04:11.836Z,62.63
2023-04-02T12:07:10.865Z,62.30
2023-04-02T12:09:46.789Z,61.09
2023-04-02T12:12:36.798Z,61.31
2023-04-02T12:15:48.562Z,60.22
2023-04-02T12:18:23.784Z,61.31
2023-04-02T12:20:56.560Z,61.15
2023-04-02T12:23:31.943Z,60.20
2023-04-02T12:26:24.084Z,56.02
2023-04-02T12:28:51.913Z,58.30
2023-04-02T12:31:25.304Z,57.30
2023-04-02T12:33:53.591Z,59.28
2023-04-02T12:36:23.711Z,57.54
2023-04-02T12:38:58.112Z,56.21
2023-04-02T12:41:33.405Z,56.55
2023-04-02T12:44:11.601Z,58.14
2023-04-02T12:46:40.672Z,58.29
2023-04-02T12:49:23.638Z,58.04
2023-04-02T12:51:52.845Z,58.32
2023-04-02T12:54:21.567Z,57.92
2023-04-02T12:56:50.838Z,58.55
2023-04-02T12:59:34.877Z,58.40
2023-04-02T13:02:18.639Z,58.41
2023-04-02T13:05:01.134Z,59.28
2023-04-02T13:07:33.735Z,59.44
2023-04-02T13:10:24.220Z,57.76
2023-04-02T13:13:02.556Z,58.12
2023-04-02T13:15:34.646Z,58.86
2023-04-02T13:18:13.575Z,58.05
2023-04-02T13:20:54.159Z,57.87
2023-04-02T13:23:34.326Z,57.58
2023-04-02T13:26:27.814Z,58.83
2023-04-02T13:29:17.716Z,57.97
2023-04-02T13:31:45.540Z,56.80
2023-04-02T13:34:13.389Z,58.25
2023-04-02T13:36:41.439Z,56.74
2023-04-02T13:39:10.007Z,56.58
2023-04-02T13:41:54.951Z,56.53
2023-04-02T13:44:29.946Z,58.10
2023-04-02T13:46:58.707Z,57.56
2023-04-02T13:49:27.987Z,56.07
2023-04-02T13:52:00.482Z,57.60
2023-04-02T13:54:55.728Z,57.32
2023-04-02T13:57:23.782Z,57.99
2023-04-02T13:59:51.615Z,57.34
2023-04-02T14:02:25.744Z,57.97
2023-04-02T14:05:28.642Z,57.38
2023-04-02T14:08:24.735Z,56.22
2023-04-02T14:11:25.270Z,56.55
2023-04-02T14:14:02.164Z,54.75
2023-04-02T14:16:56.910Z,54.75
2023-04-02T14:19:46.723Z,56.47
2023-04-02T14:22:46.331Z,54.65
2023-04-02T14:26:08.593Z,55.82
2023-04-02T14:29:11.007Z,55.99
2023-04-02T14:31:57.577Z,56.34
2023-04-02T14:34:53.785Z,57.07
2023-04-02T14:37:45.404Z,55.72
2023-04-02T14:40:25.799Z,54.95
2023-04-02T14:43:03.337Z,56.03
2023-04-02T14:46:01.657Z,56.74
2023-04-02T14:49:27.290Z,55.29
2023-04-02T14:52:05.050Z,55.09
2023-04-02T14:54:51.766Z,55.80
2023-04-02T14:57:26.521Z,54.94
2023-04-02T15:00:11.805Z,55.02
2023-04-02T15:02:56.407Z,55.95
2023-04-02T15:05:48.938Z,54.44
2023-04-02T15:08:24.018Z,54.12
2023-04-02T15:11:29.724Z,53.53
2023-04-02T15:14:17.864Z,53.99
2023-04-02T15:16:47.070Z,55.00
2023-04-02T15:19:20.576Z,55.41
2023-04-02T15:22:41.454Z,54.73
2023-04-02T15:25:49.156Z,53.84
2023-04-02T15:28:34.963Z,53.38
2023-04-02T15:31:15.415Z,53.35
2023-04-02T15:34:19.724Z,53.75
2023-04-02T15:37:13.659Z,53.42
2023-04-02T15:40:08.421Z,54.27
2023-04-02T15:42:50.411Z,53.07
2023-04-02T15:45:38.564Z,53.68
2023-04-02T15:48:45.139Z,54.01
2023-04-02T15:51:49.828Z,54.24
2023-04-02T15:55:04.375Z,54.66
2023-04-02T15:58:08.754Z,55.43
2023-04-02T16:01:13.507Z,54.78
2023-04-02T16:03:44.342Z,53.95
2023-04-02T16:06:31.240Z,52.68
2023-04-02T16:09:23.246Z,53.39
2023-04-02T16:12:09.717Z,54.30
2023-04-02T16:14:41.859Z,54.52
2023-04-02T16:17:25.610Z,55.46
2023-04-02T16:20:17.310Z,55.45
2023-04-02T16:23:00.584Z,55.57
2023-04-02T16:25:39.664Z,55.58
2023-04-02T16:29:01.062Z,55.98
2023-04-02T16:31:42.492Z,55.83
2023-04-02T16:34:55.078Z,56.92
2023-04-02T16:38:07.120Z,55.69
2023-04-02T16:41:04.770Z,56.09
2023-04-02T16:43:52.778Z,55.34
2023-04-02T16:46:39.057Z,56.11
2023-04-02T16:49:28.173Z,56.17
2023-04-02T16:52:08.858Z,56.41
2023-04-02T16:55:01.073Z,56.22
2023-04-02T16:58:07.799Z,55.31
2023-04-02T17:00:53.858Z,55.98
2023-04-02T17:03:56.090Z,55.60
2023-04-02T17:07:03.086Z,56.40
2023-04-02T17:09:53.721Z,56.49
2023-04-02T17:12:29.459Z,57.57
2023-04-02T17:15:11.646Z,57.30
2023-04-02T17:17:49.380Z,57.50
2023-04-02T17:20:23.774Z,57.22
2023-04-02T17:22:54.955Z,55.74
2023-04-02T17:25:34.065Z,56.35
2023-04-02T17:28:03.126Z,56.35
2023-04-02T17:30:53.574Z,57.12
2023-04-02T17:33:26.759Z,57.81
2023-04-02T17:36:08.621Z,57.52
2023-04-02T17:39:22.694Z,57.55
2023-04-02T17:42:26.473Z,58.00
2023-04-02T17:45:19.347Z,58.69
2023-04-02T17:48:10.880Z,58.81
2023-04-02T17:51:16.114Z,58.38
2023-04-02T17:54:11.368Z,58.89
2023-04-02T17:57:06.366Z,59.04
2023-04-02T18:00:02.636Z,59.40
2023-04-02T18:03:26.804Z,59.83
2023-04-02T18:06:06.792Z,60.71
2023-04-02T18:09:19.313Z,60.81
2023-04-02T18:12:06.981Z,60.92
2023-04-02T18:15:05.878Z,60.56
2023-04-02T18:18:11.430Z,60.98
2023-04-02T18:21:11.206Z,61.63
2023-04-02T18:24:09.778Z,62.10
2023-04-02T18:26:59.922Z,62.17
2023-04-02T18:30:01.812Z,62.70
2023-04-02T18:33:14.440Z,63.23
2023-04-02T18:36:17.126Z,63.74
2023-04-02T18:39:22.070Z,64.07
2023-04-02T18:41:59.289Z,64.40
2023-04-02T18:45:04.468Z,64.57
2023-04-02T18:48:00.305Z,64.82
2023-04-02T18:50:35.745Z,65.25
2023-04-02T18:53:18.636Z,65.28
2023-04-02T18:56:20.144Z,65.60
2023-04-02T18:58:53.002Z,65.97
2023-04-02T19:01:34.904Z,66.18
2023-04-02T19:04:09.685Z,66.66
2023-04-02T19:07:13.447Z,67.13
2023-04-02T19:09:47.856Z,67.27
2023-04-02T19:12:24.349Z,67.37
2023-04-02T19:14:52.782Z,67.55
2023-04-02T19:17:44.564Z,67.82
2023-04-02T19:20:46.296Z,67.91
2023-04-02T19:23:43.122Z,67.95
2023-04-02T19:26:22.827Z,68.28
2023-04-02T19:29:31.087Z,68.54
2023-04-02T19:32:19.987Z,68.65
2023-04-02T19:35:06.304Z,69.11
2023-04-02T19:37:39.641Z,69.10
2023-04-02T19:40:42.507Z,69.30
2023-04-02T19:43:14.003Z,69.48
2023-04-02T19:45:48.378Z,69.70
2023-04-02T19:48:22.268Z,70.04
2023-04-02T19:50:51.967Z,70.04
2023-04-02T19:53:22.653Z,70.08
2023-04-02T19:55:52.737Z,70.27
2023-04-02T19:58:32.129Z,70.44
2023-04-02T20:01:03.279Z,70.47
2023-04-02T20:03:35.654Z,70.70
2023-04-02T20:06:05.785Z,70.96
2023-04-02T20:08:36.877Z,71.03
2023-04-02T20:11:08.034Z,71.36
2023-04-02T20:13:37.143Z,71.49
2023-04-02T20:16:07.763Z,71.68
2023-04-02T20:18:37.529Z,71.99
2023-04-02T20:21:08.465Z,71.90
2023-04-02T20:23:37.360Z,72.00
2023-04-02T20:26:06.727Z,71.96
2023-04-02T20:28:36.114Z,72.35
2023-04-02T20:31:11.139Z,72.46
2023-04-02T20:33:41.974Z,72.75
2023-04-02T20:36:17.223Z,72.72
2023-04-02T20:38:45.942Z,72.91
2023-04-02T20:41:16.173Z,72.98
2023-04-02T20:43:44.915Z,73.30
2023-04-02T20:46:14.743Z,73.20
2023-04-02T20:48:44.071Z,73.50
2023-04-02T20:51:15.491Z,73.57
2023-04-02T20:53:43.709Z,73.58
2023-04-02T20:56:16.178Z,73.66
2023-04-02T20:58:44.362Z,73.58
2023-04-02T21:01:28.065Z,73.74
2023-04-02T21:04:00.560Z,74.19
2023-04-02T21:06:33.060Z,73.93
2023-04-02T21:09:07.719Z,73.98
2023-04-02T21:11:37.381Z,73.89
2023-04-02T21:14:05.537Z,73.84
2023-04-02T21:16:33.956Z,73.85
2023-04-02T21:19:07.399Z,73.81
2023-04-02T21:21:37.354Z,73.84
2023-04-02T21:24:08.558Z,73.95
2023-04-02T21:26:40.305Z,73.90
2023-04-02T21:29:08.302Z,74.04
2023-04-02T21:31:39.766Z,74.44
2023-04-02T21:34:13.649Z,74.64
2023-04-02T21:36:45.501Z,74.80
2023-04-02T21:39:22.824Z,74.90
2023-04-02T21:41:53.442Z,75.22
2023-04-02T21:44:23.763Z,75.40
2023-04-02T21:46:54.179Z,75.74
2023-04-02T21:49:23.561Z,75.80
2023-04-02T21:51:52.297Z,75.66
2023-04-02T21:54:20.288Z,75.61
2023-04-02T21:56:50.010Z,75.59
2023-04-02T21:59:18.974Z,75.62
2023-04-02T22:01:51.104Z,75.74
2023-04-02T22:04:25.386Z,75.73
2023-04-02T22:06:53.970Z,75.51
2023-04-02T22:09:25.226Z,75.67
2023-04-02T22:11:59.199Z,76.01
2023-04-02T22:14:28.546Z,76.16
2023-04-02T22:16:58.766Z,76.29
2023-04-02T22:19:27.429Z,76.26
2023-04-02T22:21:57.288Z,76.23
2023-04-02T22:24:25.627Z,76.31
2023-04-02T22:26:54.078Z,76.29
2023-04-02T22:29:22.421Z,76.45
2023-04-02T22:31:50.865Z,76.50
2023-04-02T22:34:19.013Z,76.75
2023-04-02T22:36:46.902Z,76.69
2023-04-02T22:39:16.322Z,76.84
2023-04-02T22:41:44.159Z,77.09
2023-04-02T22:44:15.519Z,77.21
2023-04-02T22:46:43.638Z,77.24
2023-04-02T22:49:19.504Z,77.34
2023-04-02T22:51:48.194Z,77.40
2023-04-02T22:54:16.331Z,77.33
2023-04-02T22:56:44.341Z,77.49
2023-04-02T22:59:12.427Z,77.63
2023-04-02T23:01:41.084Z,77.78
2023-04-02T23:04:09.557Z,77.82
2023-04-02T23:06:37.573Z,77.99
2023-04-02T23:09:05.561Z,78.07
2023-04-02T23:11:33.713Z,78.08
2023-04-02T23:14:01.785Z,78.17
2023-04-02T23:16:30.524Z,78.21
2023-04-02T23:18:58.860Z,78.20
2023-04-02T23:21:27.514Z,78.36
2023-04-02T23:23:56.272Z,78.60
2023-04-02T23:26:29.596Z,78.72
2023-04-02T23:28:59.844Z,78.85
2023-04-02T23:31:29.035Z,79.06
2023-04-02T23:33:57.023Z,79.02
2023-04-02T23:36:29.223Z,79.09
2023-04-02T23:39:04.552Z,79.13
2023-04-02T23:41:32.541Z,79.26
2023-04-02T23:44:01.060Z,79.27
2023-04-02T23:46:31.101Z,79.31
2023-04-02T23:49:00.720Z,79.40
2023-04-02T23:51:34.120Z,79.39
2023-04-02T23:54:02.076Z,79.18
2023-04-02T23:56:30.116Z,79.07
2023-04-02T23:58:58.024Z,79.12
